sensor_id;sensor_type;location;lat;lon;timestamp;pressure;altitude;pressure_sealevel;temperature;humidity
52839;BME280;39219;53.678;9.856;2022-10-15T00:01:10;100407.59;;;13.94;100.00
52839;BME280;39219;53.678;9.856;2022-10-15T00:03:39;100405.81;;;13.95;100.00
52839;BME280;39219;53.678;9.856;2022-10-15T00:06:07;100396.28;;;13.89;100.00
52839;BME280;39219;53.678;9.856;2022-10-15T00:08:34;100400.53;;;13.93;100.00
52839;BME280;39219;53.678;9.856;2022-10-15T00:11:02;100396.13;;;13.92;100.00
52839;BME280;39219;53.678;9.856;2022-10-15T00:13:29;100393.44;;;13.92;100.00
52839;BME280;39219;53.678;9.856;2022-10-15T00:15:57;100407.47;;;13.97;100.00
52839;BME280;39219;53.678;9.856;2022-10-15T00:18:23;100392.38;;;13.96;100.00
52839;BME280;39219;53.678;9.856;2022-10-15T00:20:51;100398.59;;;13.97;100.00
52839;BME280;39219;53.678;9.856;2022-10-15T00:23:18;100392.25;;;13.99;100.00
52839;BME280;39219;53.678;9.856;2022-10-15T00:25:44;100392.25;;;13.99;100.00
52839;BME280;39219;53.678;9.856;2022-10-15T00:28:11;100395.94;;;13.97;100.00
52839;BME280;39219;53.678;9.856;2022-10-15T00:30:37;100396.78;;;13.97;100.00
52839;BME280;39219;53.678;9.856;2022-10-15T00:33:03;100389.72;;;13.96;100.00
52839;BME280;39219;53.678;9.856;2022-10-15T00:35:30;100393.13;;;14.00;100.00
52839;BME280;39219;53.678;9.856;2022-10-15T00:37:58;100389.44;;;14.02;100.00
52839;BME280;39219;53.678;9.856;2022-10-15T00:40:24;100388.66;;;14.00;100.00
52839;BME280;39219;53.678;9.856;2022-10-15T00:42:50;100394.88;;;14.01;100.00
52839;BME280;39219;53.678;9.856;2022-10-15T00:45:17;100393.25;;;13.97;100.00
52839;BME280;39219;53.678;9.856;2022-10-15T00:47:46;100388.88;;;13.96;100.00
52839;BME280;39219;53.678;9.856;2022-10-15T00:50:16;100388.66;;;14.00;100.00
52839;BME280;39219;53.678;9.856;2022-10-15T00:52:47;100391.13;;;14.05;100.00
52839;BME280;39219;53.678;9.856;2022-10-15T00:55:24;100391.06;;;14.06;100.00
52839;BME280;39219;53.678;9.856;2022-10-15T00:57:52;100393.00;;;14.03;100.00
52839;BME280;39219;53.678;9.856;2022-10-15T01:00:20;100396.66;;;14.00;100.00
52839;BME280;39219;53.678;9.856;2022-10-15T01:02:47;100398.38;;;14.01;100.00
52839;BME280;39219;53.678;9.856;2022-10-15T01:05:15;100388.59;;;14.02;100.00
52839;BME280;39219;53.678;9.856;2022-10-15T01:07:42;100381.56;;;13.99;100.00
52839;BME280;39219;53.678;9.856;2022-10-15T01:10:10;100390.50;;;13.98;100.00
52839;BME280;39219;53.678;9.856;2022-10-15T01:12:56;100382.50;;;13.98;100.00
52839;BME280;39219;53.678;9.856;2022-10-15T01:15:25;100385.19;;;13.98;100.00
52839;BME280;39219;53.678;9.856;2022-10-15T01:17:56;100381.66;;;13.98;100.00
52839;BME280;39219;53.678;9.856;2022-10-15T01:20:44;100377.16;;;13.98;100.00
52839;BME280;39219;53.678;9.856;2022-10-15T01:23:31;100375.38;;;13.99;100.00
52839;BME280;39219;53.678;9.856;2022-10-15T01:26:26;100381.72;;;13.96;100.00
52839;BME280;39219;53.678;9.856;2022-10-15T01:29:06;100373.78;;;13.95;100.00
52839;BME280;39219;53.678;9.856;2022-10-15T01:31:44;100375.06;;;13.86;100.00
52839;BME280;39219;53.678;9.856;2022-10-15T01:34:20;100371.78;;;13.79;100.00
52839;BME280;39219;53.678;9.856;2022-10-15T01:36:54;100380.66;;;13.80;100.00
52839;BME280;39219;53.678;9.856;2022-10-15T01:39:26;100380.72;;;13.78;100.00
52839;BME280;39219;53.678;9.856;2022-10-15T01:41:59;100386.03;;;13.78;100.00
52839;BME280;39219;53.678;9.856;2022-10-15T01:44:29;100386.00;;;13.80;100.00
52839;BME280;39219;53.678;9.856;2022-10-15T01:47:02;100388.78;;;13.76;100.00
52839;BME280;39219;53.678;9.856;2022-10-15T01:49:33;100393.06;;;13.81;100.00
52839;BME280;39219;53.678;9.856;2022-10-15T01:52:07;100382.97;;;13.87;100.00
52839;BME280;39219;53.678;9.856;2022-10-15T01:54:35;100391.19;;;13.83;100.00
52839;BME280;39219;53.678;9.856;2022-10-15T01:57:03;100387.72;;;13.81;100.00
52839;BME280;39219;53.678;9.856;2022-10-15T01:59:32;100394.13;;;13.76;100.00
52839;BME280;39219;53.678;9.856;2022-10-15T02:02:00;100385.19;;;13.77;100.00
52839;BME280;39219;53.678;9.856;2022-10-15T02:04:29;100392.31;;;13.77;100.00
52839;BME280;39219;53.678;9.856;2022-10-15T02:07:01;100382.53;;;13.77;100.00
52839;BME280;39219;53.678;9.856;2022-10-15T02:09:36;100386.00;;;13.80;100.00
52839;BME280;39219;53.678;9.856;2022-10-15T02:12:09;100371.22;;;13.71;100.00
52839;BME280;39219;53.678;9.856;2022-10-15T02:14:43;100382.91;;;13.68;100.00
52839;BME280;39219;53.678;9.856;2022-10-15T02:17:16;100370.75;;;13.61;100.00
52839;BME280;39219;53.678;9.856;2022-10-15T02:19:48;100366.69;;;13.52;100.00
52839;BME280;39219;53.678;9.856;2022-10-15T02:22:18;100376.84;;;13.42;100.00
52839;BME280;39219;53.678;9.856;2022-10-15T02:24:51;100371.56;;;13.41;100.00
52839;BME280;39219;53.678;9.856;2022-10-15T02:27:19;100374.16;;;13.44;100.00
52839;BME280;39219;53.678;9.856;2022-10-15T02:29:48;100375.00;;;13.44;100.00
52839;BME280;39219;53.678;9.856;2022-10-15T02:32:19;100371.53;;;13.42;100.00
52839;BME280;39219;53.678;9.856;2022-10-15T02:34:48;100372.31;;;13.44;100.00
52839;BME280;39219;53.678;9.856;2022-10-15T02:37:18;100375.94;;;13.43;100.00
52839;BME280;39219;53.678;9.856;2022-10-15T02:39:46;100370.53;;;13.45;100.00
52839;BME280;39219;53.678;9.856;2022-10-15T02:42:13;100367.91;;;13.43;100.00
52839;BME280;39219;53.678;9.856;2022-10-15T02:44:40;100365.34;;;13.42;100.00
52839;BME280;39219;53.678;9.856;2022-10-15T02:47:06;100367.88;;;13.45;100.00
52839;BME280;39219;53.678;9.856;2022-10-15T02:49:34;100366.41;;;13.36;100.00
52839;BME280;39219;53.678;9.856;2022-10-15T02:52:00;100359.47;;;13.32;100.00
52839;BME280;39219;53.678;9.856;2022-10-15T02:54:27;100372.91;;;13.29;100.00
52839;BME280;39219;53.678;9.856;2022-10-15T02:56:53;100364.31;;;13.22;100.00
52839;BME280;39219;53.678;9.856;2022-10-15T02:59:20;100361.91;;;13.16;100.00
52839;BME280;39219;53.678;9.856;2022-10-15T03:01:46;100362.25;;;13.07;100.00
52839;BME280;39219;53.678;9.856;2022-10-15T03:04:13;100359.09;;;12.97;100.00
52839;BME280;39219;53.678;9.856;2022-10-15T03:06:41;100363.88;;;12.88;100.00
52839;BME280;39219;53.678;9.856;2022-10-15T03:09:07;100360.50;;;12.83;100.00
52839;BME280;39219;53.678;9.856;2022-10-15T03:11:34;100360.88;;;12.74;100.00
52839;BME280;39219;53.678;9.856;2022-10-15T03:14:00;100361.28;;;12.63;100.00
52839;BME280;39219;53.678;9.856;2022-10-15T03:16:27;100365.22;;;12.53;100.00
52839;BME280;39219;53.678;9.856;2022-10-15T03:18:53;100365.34;;;12.50;100.00
52839;BME280;39219;53.678;9.856;2022-10-15T03:21:19;100367.16;;;12.49;100.00
52839;BME280;39219;53.678;9.856;2022-10-15T03:23:47;100363.56;;;12.50;100.00
52839;BME280;39219;53.678;9.856;2022-10-15T03:26:14;100364.59;;;12.46;100.00
52839;BME280;39219;53.678;9.856;2022-10-15T03:28:40;100362.09;;;12.41;100.00
52839;BME280;39219;53.678;9.856;2022-10-15T03:31:07;100364.34;;;12.28;100.00
52839;BME280;39219;53.678;9.856;2022-10-15T03:33:33;100364.66;;;12.21;100.00
52839;BME280;39219;53.678;9.856;2022-10-15T03:35:59;100368.47;;;12.13;100.00
52839;BME280;39219;53.678;9.856;2022-10-15T03:38:26;100376.59;;;12.09;100.00
52839;BME280;39219;53.678;9.856;2022-10-15T03:40:54;100369.63;;;12.05;100.00
52839;BME280;39219;53.678;9.856;2022-10-15T03:43:22;100369.75;;;12.02;100.00
52839;BME280;39219;53.678;9.856;2022-10-15T03:45:49;100370.56;;;12.04;100.00
52839;BME280;39219;53.678;9.856;2022-10-15T03:48:15;100374.97;;;12.05;100.00
52839;BME280;39219;53.678;9.856;2022-10-15T03:50:42;100373.13;;;12.07;100.00
52839;BME280;39219;53.678;9.856;2022-10-15T03:53:09;100374.09;;;12.04;100.00
52839;BME280;39219;53.678;9.856;2022-10-15T03:55:35;100372.91;;;12.13;100.00
52839;BME280;39219;53.678;9.856;2022-10-15T03:58:04;100369.91;;;12.22;100.00
52839;BME280;39219;53.678;9.856;2022-10-15T04:00:30;100365.16;;;12.31;100.00
52839;BME280;39219;53.678;9.856;2022-10-15T04:02:56;100372.97;;;12.35;100.00
52839;BME280;39219;53.678;9.856;2022-10-15T04:05:23;100371.09;;;12.39;100.00
52839;BME280;39219;53.678;9.856;2022-10-15T04:07:49;100375.47;;;12.40;100.00
52839;BME280;39219;53.678;9.856;2022-10-15T04:10:16;100372.75;;;12.41;100.00
52839;BME280;39219;53.678;9.856;2022-10-15T04:12:42;100372.81;;;12.40;100.00
52839;BME280;39219;53.678;9.856;2022-10-15T04:15:10;100376.41;;;12.39;100.00
52839;BME280;39219;53.678;9.856;2022-10-15T04:17:36;100378.03;;;12.43;100.00
52839;BME280;39219;53.678;9.856;2022-10-15T04:20:03;100376.06;;;12.48;100.00
52839;BME280;39219;53.678;9.856;2022-10-15T04:22:30;100367.09;;;12.51;100.00
52839;BME280;39219;53.678;9.856;2022-10-15T04:24:56;100371.44;;;12.53;100.00
52839;BME280;39219;53.678;9.856;2022-10-15T04:27:23;100374.00;;;12.56;100.00
52839;BME280;39219;53.678;9.856;2022-10-15T04:29:49;100380.25;;;12.55;100.00
52839;BME280;39219;53.678;9.856;2022-10-15T04:32:17;100378.44;;;12.56;100.00
52839;BME280;39219;53.678;9.856;2022-10-15T04:34:43;100379.19;;;12.59;100.00
52839;BME280;39219;53.678;9.856;2022-10-15T04:37:11;100381.78;;;12.61;100.00
52839;BME280;39219;53.678;9.856;2022-10-15T04:39:38;100386.19;;;12.62;100.00
52839;BME280;39219;53.678;9.856;2022-10-15T04:42:04;100384.75;;;12.53;100.00
52839;BME280;39219;53.678;9.856;2022-10-15T04:44:31;100385.81;;;12.49;100.00
52839;BME280;39219;53.678;9.856;2022-10-15T04:46:57;100392.91;;;12.49;100.00
52839;BME280;39219;53.678;9.856;2022-10-15T04:49:25;100390.81;;;12.57;100.00
52839;BME280;39219;53.678;9.856;2022-10-15T04:51:52;100394.22;;;12.61;100.00
52839;BME280;39219;53.678;9.856;2022-10-15T04:54:18;100391.41;;;12.65;100.00
52839;BME280;39219;53.678;9.856;2022-10-15T04:56:45;100401.94;;;12.68;100.00
52839;BME280;39219;53.678;9.856;2022-10-15T04:59:11;100399.22;;;12.70;100.00
52839;BME280;39219;53.678;9.856;2022-10-15T05:01:38;100407.16;;;12.71;100.00
52839;BME280;39219;53.678;9.856;2022-10-15T05:04:04;100405.31;;;12.73;100.00
52839;BME280;39219;53.678;9.856;2022-10-15T05:06:32;100413.22;;;12.75;100.00
52839;BME280;39219;53.678;9.856;2022-10-15T05:08:59;100407.78;;;12.78;100.00
52839;BME280;39219;53.678;9.856;2022-10-15T05:11:27;100402.47;;;12.78;100.00
52839;BME280;39219;53.678;9.856;2022-10-15T05:13:54;100410.44;;;12.78;100.00
52839;BME280;39219;53.678;9.856;2022-10-15T05:16:23;100413.19;;;12.77;100.00
52839;BME280;39219;53.678;9.856;2022-10-15T05:18:52;100411.59;;;12.71;100.00
52839;BME280;39219;53.678;9.856;2022-10-15T05:21:20;100412.53;;;12.70;100.00
52839;BME280;39219;53.678;9.856;2022-10-15T05:23:48;100407.22;;;12.70;100.00
52839;BME280;39219;53.678;9.856;2022-10-15T05:26:16;100415.09;;;12.73;100.00
52839;BME280;39219;53.678;9.856;2022-10-15T05:28:43;100420.28;;;12.76;100.00
52839;BME280;39219;53.678;9.856;2022-10-15T05:31:11;100418.63;;;12.73;100.00
52839;BME280;39219;53.678;9.856;2022-10-15T05:33:38;100423.41;;;12.64;100.00
52839;BME280;39219;53.678;9.856;2022-10-15T05:36:09;100426.06;;;12.64;100.00
52839;BME280;39219;53.678;9.856;2022-10-15T05:38:36;100425.16;;;12.65;100.00
52839;BME280;39219;53.678;9.856;2022-10-15T05:41:04;100425.00;;;12.69;100.00
52839;BME280;39219;53.678;9.856;2022-10-15T05:43:30;100422.38;;;12.68;100.00
52839;BME280;39219;53.678;9.856;2022-10-15T05:45:57;100434.06;;;12.64;100.00
52839;BME280;39219;53.678;9.856;2022-10-15T05:48:23;100422.75;;;12.58;100.00
52839;BME280;39219;53.678;9.856;2022-10-15T05:50:50;100437.09;;;12.54;100.00
52839;BME280;39219;53.678;9.856;2022-10-15T05:53:17;100433.41;;;12.58;100.00
52839;BME280;39219;53.678;9.856;2022-10-15T05:55:43;100436.84;;;12.61;100.00
52839;BME280;39219;53.678;9.856;2022-10-15T05:58:11;100442.97;;;12.63;100.00
52839;BME280;39219;53.678;9.856;2022-10-15T06:00:37;100444.91;;;12.59;100.00
52839;BME280;39219;53.678;9.856;2022-10-15T06:03:04;100446.44;;;12.66;100.00
52839;BME280;39219;53.678;9.856;2022-10-15T06:05:31;100438.72;;;12.58;100.00
52839;BME280;39219;53.678;9.856;2022-10-15T06:07:57;100444.28;;;12.52;100.00
52839;BME280;39219;53.678;9.856;2022-10-15T06:10:24;100443.50;;;12.49;100.00
52839;BME280;39219;53.678;9.856;2022-10-15T06:12:52;100440.56;;;12.56;100.00
52839;BME280;39219;53.678;9.856;2022-10-15T06:15:21;100444.16;;;12.55;100.00
52839;BME280;39219;53.678;9.856;2022-10-15T06:17:50;100437.09;;;12.54;100.00
52839;BME280;39219;53.678;9.856;2022-10-15T06:20:17;100445.91;;;12.56;100.00
52839;BME280;39219;53.678;9.856;2022-10-15T06:22:43;100449.31;;;12.60;100.00
52839;BME280;39219;53.678;9.856;2022-10-15T06:25:10;100449.38;;;12.58;100.00
52839;BME280;39219;53.678;9.856;2022-10-15T06:27:36;100451.91;;;12.62;100.00
52839;BME280;39219;53.678;9.856;2022-10-15T06:30:04;100456.41;;;12.59;100.00
52839;BME280;39219;53.678;9.856;2022-10-15T06:32:32;100463.34;;;12.65;100.00
52839;BME280;39219;53.678;9.856;2022-10-15T06:34:58;100465.00;;;12.68;100.00
52839;BME280;39219;53.678;9.856;2022-10-15T06:37:25;100465.09;;;12.65;100.00
52839;BME280;39219;53.678;9.856;2022-10-15T06:39:51;100462.34;;;12.68;100.00
52839;BME280;39219;53.678;9.856;2022-10-15T06:42:18;100464.84;;;12.72;100.00
52839;BME280;39219;53.678;9.856;2022-10-15T06:44:44;100458.94;;;12.64;100.00
52839;BME280;39219;53.678;9.856;2022-10-15T06:47:10;100462.41;;;12.66;100.00
52839;BME280;39219;53.678;9.856;2022-10-15T06:49:38;100462.81;;;12.55;100.00
52839;BME280;39219;53.678;9.856;2022-10-15T06:52:05;100463.44;;;12.62;100.00
52839;BME280;39219;53.678;9.856;2022-10-15T06:54:31;100456.56;;;12.56;100.00
52839;BME280;39219;53.678;9.856;2022-10-15T06:56:58;100458.03;;;12.64;100.00
52839;BME280;39219;53.678;9.856;2022-10-15T06:59:24;100460.97;;;12.57;100.00
52839;BME280;39219;53.678;9.856;2022-10-15T07:01:51;100462.53;;;12.63;100.00
52839;BME280;39219;53.678;9.856;2022-10-15T07:04:17;100467.06;;;12.59;100.00
52839;BME280;39219;53.678;9.856;2022-10-15T07:06:45;100467.97;;;12.60;100.00
52839;BME280;39219;53.678;9.856;2022-10-15T07:09:11;100468.13;;;12.55;100.00
52839;BME280;39219;53.678;9.856;2022-10-15T07:11:38;100466.41;;;12.54;100.00
52839;BME280;39219;53.678;9.856;2022-10-15T07:14:05;100462.75;;;12.57;100.00
52839;BME280;39219;53.678;9.856;2022-10-15T07:16:31;100466.03;;;12.64;100.00
52839;BME280;39219;53.678;9.856;2022-10-15T07:18:58;100451.06;;;12.61;100.00
52839;BME280;39219;53.678;9.856;2022-10-15T07:21:24;100459.56;;;12.71;100.00
52839;BME280;39219;53.678;9.856;2022-10-15T07:23:52;100464.88;;;12.71;100.00
52839;BME280;39219;53.678;9.856;2022-10-15T07:26:18;100465.59;;;12.76;100.00
52839;BME280;39219;53.678;9.856;2022-10-15T07:28:45;100470.47;;;12.88;100.00
52839;BME280;39219;53.678;9.856;2022-10-15T07:31:11;100473.75;;;12.95;100.00
52839;BME280;39219;53.678;9.856;2022-10-15T07:33:38;100468.06;;;13.04;100.00
52839;BME280;39219;53.678;9.856;2022-10-15T07:36:06;100478.69;;;13.06;100.00
52839;BME280;39219;53.678;9.856;2022-10-15T07:38:33;100474.19;;;13.08;100.00
52839;BME280;39219;53.678;9.856;2022-10-15T07:41:03;100467.03;;;13.09;100.00
52839;BME280;39219;53.678;9.856;2022-10-15T07:43:29;100476.41;;;13.19;100.00
52839;BME280;39219;53.678;9.856;2022-10-15T07:45:56;100478.84;;;13.25;100.00
52839;BME280;39219;53.678;9.856;2022-10-15T07:48:22;100472.66;;;13.25;100.00
52839;BME280;39219;53.678;9.856;2022-10-15T07:50:53;100472.91;;;13.41;100.00
52839;BME280;39219;53.678;9.856;2022-10-15T07:53:20;100473.75;;;13.43;100.00
52839;BME280;39219;53.678;9.856;2022-10-15T07:55:46;100479.69;;;13.50;100.00
52839;BME280;39219;53.678;9.856;2022-10-15T07:58:14;100483.53;;;13.65;100.00
52839;BME280;39219;53.678;9.856;2022-10-15T08:00:40;100488.63;;;13.71;100.00
52839;BME280;39219;53.678;9.856;2022-10-15T08:03:07;100482.91;;;13.80;100.00
52839;BME280;39219;53.678;9.856;2022-10-15T08:05:33;100479.44;;;13.78;100.00
52839;BME280;39219;53.678;9.856;2022-10-15T08:08:00;100491.41;;;13.68;100.00
52839;BME280;39219;53.678;9.856;2022-10-15T08:10:26;100487.13;;;13.63;100.00
52839;BME280;39219;53.678;9.856;2022-10-15T08:12:53;100490.75;;;13.62;100.00
52839;BME280;39219;53.678;9.856;2022-10-15T08:15:21;100488.38;;;13.55;100.00
52839;BME280;39219;53.678;9.856;2022-10-15T08:17:47;100486.97;;;13.68;100.00
52839;BME280;39219;53.678;9.856;2022-10-15T08:20:14;100492.91;;;13.53;100.00
52839;BME280;39219;53.678;9.856;2022-10-15T08:22:40;100491.13;;;13.53;100.00
52839;BME280;39219;53.678;9.856;2022-10-15T08:25:07;100489.41;;;13.52;100.00
52839;BME280;39219;53.678;9.856;2022-10-15T08:27:34;100487.41;;;13.57;100.00
52839;BME280;39219;53.678;9.856;2022-10-15T08:30:00;100496.28;;;13.58;100.00
52839;BME280;39219;53.678;9.856;2022-10-15T08:32:28;100492.34;;;13.67;100.00
52839;BME280;39219;53.678;9.856;2022-10-15T08:34:55;100496.75;;;13.68;100.00
52839;BME280;39219;53.678;9.856;2022-10-15T08:37:21;100498.44;;;13.70;100.00
52839;BME280;39219;53.678;9.856;2022-10-15T08:39:47;100495.84;;;13.91;100.00
52839;BME280;39219;53.678;9.856;2022-10-15T08:42:17;100489.66;;;14.32;100.00
52839;BME280;39219;53.678;9.856;2022-10-15T08:44:49;100491.66;;;14.47;100.00
52839;BME280;39219;53.678;9.856;2022-10-15T08:47:25;100488.66;;;14.34;100.00
52839;BME280;39219;53.678;9.856;2022-10-15T08:49:57;100492.91;;;14.18;100.00
52839;BME280;39219;53.678;9.856;2022-10-15T08:52:30;100494.94;;;14.54;100.00
52839;BME280;39219;53.678;9.856;2022-10-15T08:55:00;100499.84;;;14.63;100.00
52839;BME280;39219;53.678;9.856;2022-10-15T08:57:36;100497.34;;;14.81;100.00
52839;BME280;39219;53.678;9.856;2022-10-15T09:00:11;100487.72;;;14.77;100.00
52839;BME280;39219;53.678;9.856;2022-10-15T09:02:44;100503.56;;;15.01;100.00
52839;BME280;39219;53.678;9.856;2022-10-15T09:05:23;100510.47;;;15.81;100.00
52839;BME280;39219;53.678;9.856;2022-10-15T09:07:54;100498.53;;;15.69;100.00
52839;BME280;39219;53.678;9.856;2022-10-15T09:10:29;100513.19;;;15.24;100.00
52839;BME280;39219;53.678;9.856;2022-10-15T09:13:01;100511.75;;;15.17;100.00
52839;BME280;39219;53.678;9.856;2022-10-15T09:15:35;100511.00;;;14.94;100.00
52839;BME280;39219;53.678;9.856;2022-10-15T09:18:02;100509.06;;;15.36;100.00
52839;BME280;39219;53.678;9.856;2022-10-15T09:20:33;100508.59;;;15.64;100.00
52839;BME280;39219;53.678;9.856;2022-10-15T09:23:01;100511.47;;;15.42;100.00
52839;BME280;39219;53.678;9.856;2022-10-15T09:25:33;100510.63;;;15.59;100.00
52839;BME280;39219;53.678;9.856;2022-10-15T09:28:06;100508.56;;;16.03;100.00
52839;BME280;39219;53.678;9.856;2022-10-15T09:30:38;100507.25;;;16.29;100.00
52839;BME280;39219;53.678;9.856;2022-10-15T09:33:13;100512.13;;;16.21;100.00
52839;BME280;39219;53.678;9.856;2022-10-15T09:35:46;100509.97;;;16.27;100.00
52839;BME280;39219;53.678;9.856;2022-10-15T09:38:24;100504.53;;;16.64;100.00
52839;BME280;39219;53.678;9.856;2022-10-15T09:41:03;100498.88;;;16.53;100.00
52839;BME280;39219;53.678;9.856;2022-10-15T09:43:41;100502.19;;;16.40;100.00
52839;BME280;39219;53.678;9.856;2022-10-15T09:46:09;100502.63;;;16.66;100.00
52839;BME280;39219;53.678;9.856;2022-10-15T09:48:40;100506.31;;;16.81;100.00
52839;BME280;39219;53.678;9.856;2022-10-15T09:51:17;100498.47;;;17.12;99.09
52839;BME280;39219;53.678;9.856;2022-10-15T09:53:53;100497.91;;;17.05;98.63
52839;BME280;39219;53.678;9.856;2022-10-15T09:56:22;100505.38;;;17.16;100.00
52839;BME280;39219;53.678;9.856;2022-10-15T09:58:52;100496.47;;;17.15;97.76
52839;BME280;39219;53.678;9.856;2022-10-15T10:01:21;100504.00;;;17.73;99.89
52839;BME280;39219;53.678;9.856;2022-10-15T10:03:51;100497.56;;;17.75;94.19
52839;BME280;39219;53.678;9.856;2022-10-15T10:06:21;100489.44;;;18.24;95.07
52839;BME280;39219;53.678;9.856;2022-10-15T10:08:51;100492.63;;;18.30;93.25
52839;BME280;39219;53.678;9.856;2022-10-15T10:11:19;100490.28;;;18.10;91.94
52839;BME280;39219;53.678;9.856;2022-10-15T10:13:51;100503.06;;;17.74;93.80
52839;BME280;39219;53.678;9.856;2022-10-15T10:16:19;100499.28;;;18.09;95.17
52839;BME280;39219;53.678;9.856;2022-10-15T10:19:01;100500.13;;;18.09;91.11
52839;BME280;39219;53.678;9.856;2022-10-15T10:21:31;100497.25;;;18.43;91.88
52839;BME280;39219;53.678;9.856;2022-10-15T10:24:17;100498.13;;;18.58;91.79
52839;BME280;39219;53.678;9.856;2022-10-15T10:26:44;100500.63;;;18.46;91.21
52839;BME280;39219;53.678;9.856;2022-10-15T10:29:16;100494.50;;;18.14;90.57
52839;BME280;39219;53.678;9.856;2022-10-15T10:31:43;100500.66;;;18.16;88.63
52839;BME280;39219;53.678;9.856;2022-10-15T10:34:14;100492.13;;;18.24;88.52
52839;BME280;39219;53.678;9.856;2022-10-15T10:36:47;100490.72;;;18.47;87.78
52839;BME280;39219;53.678;9.856;2022-10-15T10:39:20;100491.03;;;18.42;90.36
52839;BME280;39219;53.678;9.856;2022-10-15T10:41:51;100490.72;;;18.47;89.67
52839;BME280;39219;53.678;9.856;2022-10-15T10:44:20;100497.09;;;18.60;90.35
52839;BME280;39219;53.678;9.856;2022-10-15T10:47:00;100485.72;;;19.00;88.02
52839;BME280;39219;53.678;9.856;2022-10-15T10:49:31;100478.84;;;18.51;88.37
52839;BME280;39219;53.678;9.856;2022-10-15T10:51:59;100491.31;;;18.07;86.79
52839;BME280;39219;53.678;9.856;2022-10-15T10:54:27;100488.56;;;17.76;89.76
52839;BME280;39219;53.678;9.856;2022-10-15T10:56:55;100479.13;;;17.85;90.55
52839;BME280;39219;53.678;9.856;2022-10-15T10:59:26;100485.25;;;18.03;92.65
52839;BME280;39219;53.678;9.856;2022-10-15T11:01:53;100481.78;;;17.55;90.59
52839;BME280;39219;53.678;9.856;2022-10-15T11:04:23;100479.09;;;17.55;91.92
52839;BME280;39219;53.678;9.856;2022-10-15T11:06:57;100484.88;;;17.31;92.57
52839;BME280;39219;53.678;9.856;2022-10-15T11:09:41;100475.25;;;17.43;92.66
52839;BME280;39219;53.678;9.856;2022-10-15T11:12:24;100473.72;;;17.55;92.96
52839;BME280;39219;53.678;9.856;2022-10-15T11:14:54;100475.28;;;17.89;91.92
52839;BME280;39219;53.678;9.856;2022-10-15T11:17:26;100477.34;;;17.38;89.03
52839;BME280;39219;53.678;9.856;2022-10-15T11:20:01;100474.88;;;17.01;92.18
52839;BME280;39219;53.678;9.856;2022-10-15T11:22:42;100486.78;;;17.13;92.81
52839;BME280;39219;53.678;9.856;2022-10-15T11:25:22;100480.69;;;17.25;93.20
52839;BME280;39219;53.678;9.856;2022-10-15T11:28:05;100485.28;;;17.23;93.28
52839;BME280;39219;53.678;9.856;2022-10-15T11:30:44;100472.06;;;17.20;92.33
52839;BME280;39219;53.678;9.856;2022-10-15T11:33:32;100475.25;;;17.11;91.75
52839;BME280;39219;53.678;9.856;2022-10-15T11:36:17;100466.50;;;17.55;92.86
52839;BME280;39219;53.678;9.856;2022-10-15T11:38:53;100470.97;;;17.87;87.64
52839;BME280;39219;53.678;9.856;2022-10-15T11:41:35;100470.84;;;18.35;87.04
52839;BME280;39219;53.678;9.856;2022-10-15T11:44:31;100475.94;;;18.40;85.12
52839;BME280;39219;53.678;9.856;2022-10-15T11:47:12;100470.47;;;18.56;86.42
52839;BME280;39219;53.678;9.856;2022-10-15T11:49:49;100467.22;;;18.36;82.26
52839;BME280;39219;53.678;9.856;2022-10-15T11:52:38;100461.81;;;17.59;84.17
52839;BME280;39219;53.678;9.856;2022-10-15T11:55:13;100463.41;;;17.31;87.28
52839;BME280;39219;53.678;9.856;2022-10-15T11:57:45;100465.03;;;17.34;90.55
52839;BME280;39219;53.678;9.856;2022-10-15T12:00:22;100468.31;;;17.71;90.04
52839;BME280;39219;53.678;9.856;2022-10-15T12:02:55;100466.84;;;17.96;87.99
52839;BME280;39219;53.678;9.856;2022-10-15T12:05:28;100462.41;;;18.41;87.06
52839;BME280;39219;53.678;9.856;2022-10-15T12:07:56;100457.44;;;18.78;86.42
52839;BME280;39219;53.678;9.856;2022-10-15T12:10:34;100456.94;;;18.57;83.43
52839;BME280;39219;53.678;9.856;2022-10-15T12:13:09;100455.88;;;18.60;83.92
52839;BME280;39219;53.678;9.856;2022-10-15T12:15:45;100445.81;;;18.63;84.80
52839;BME280;39219;53.678;9.856;2022-10-15T12:18:19;100434.47;;;18.44;84.62
52839;BME280;39219;53.678;9.856;2022-10-15T12:20:49;100430.50;;;18.20;85.23
52839;BME280;39219;53.678;9.856;2022-10-15T12:23:24;100406.78;;;18.27;82.06
52839;BME280;39219;53.678;9.856;2022-10-15T12:25:51;100419.81;;;18.49;83.92
52839;BME280;39219;53.678;9.856;2022-10-15T12:28:21;100417.28;;;18.32;82.02
52839;BME280;39219;53.678;9.856;2022-10-15T12:31:02;100417.16;;;18.33;82.84
52839;BME280;39219;53.678;9.856;2022-10-15T12:33:32;100410.19;;;18.31;78.41
52839;BME280;39219;53.678;9.856;2022-10-15T12:36:01;100402.97;;;18.46;80.42
52839;BME280;39219;53.678;9.856;2022-10-15T12:38:34;100403.25;;;18.27;76.26
52839;BME280;39219;53.678;9.856;2022-10-15T12:41:05;100408.50;;;17.99;76.75
52839;BME280;39219;53.678;9.856;2022-10-15T12:43:36;100408.59;;;18.12;79.61
52839;BME280;39219;53.678;9.856;2022-10-15T12:46:06;100406.59;;;18.30;80.77
52839;BME280;39219;53.678;9.856;2022-10-15T12:48:35;100401.81;;;18.50;79.86
52839;BME280;39219;53.678;9.856;2022-10-15T12:54:34;100419.34;;;18.12;78.47
52839;BME280;39219;53.678;9.856;2022-10-15T12:57:01;100412.09;;;18.29;81.37
52839;BME280;39219;53.678;9.856;2022-10-15T12:59:53;100419.22;;;18.44;82.10